Terminal Aerodrome Forecast
Issued by NWS

Home | Current Version | Previous Version | Text Only | Print | Product List | Glossary On
Versions: 1 2 3 4 5 6 7 8 9 10 11 12 13 14 15 16 17
000
FTUS45 KGJT 201142
TAFCNY
TAF
KCNY 201142Z 2012/2112 20004KT 2SM -SHSN BR FEW005 SCT012 OVC025
      TEMPO 2013/2015 1/2SM FG VV004
     FM201600 23006KT 4SM BR FEW012 BKN025
     FM202300 18005KT 4SM BR SCT025 OVC040
     FM210400 14006KT 2SM -SHSN BR OVC015
     FM210800 15006KT 2SM -SN BR OVC015=

USA.gov is the U.S. government's official web portal to all federal, state and local government web resources and services.